Time;durP1;ratioP1;P1;durP2;ratioP2;P2;SDS_P1;SDS_P2;PMS_P1;PMS_P2;Temp;Humidity;BMP_temperature;BMP_pressure;BME280_temperature;BME280_humidity;BME280_pressure;Samples;Min_cycle;Max_cycle;Signal;HPM_P1;HPM_P2
2022/02/17 00:02:01;;;;;;;;;;;;;;;9.63;100.00;94424.38;10413050;28;1990;-69
2022/02/17 00:07:05;;;;;;;;;;;;;;;9.54;100.00;94453.75;10412805;28;1958;-71
2022/02/17 00:12:08;;;;;;;;;;;;;;;9.41;100.00;94444.63;10419482;28;1826;-70
2022/02/17 00:17:12;;;;;;;;;;;;;;;9.34;100.00;94413.94;10410793;28;1869;-70
2022/02/17 00:22:16;;;;;;;;;;;;;;;9.27;100.00;94448.41;10422682;28;1922;-69
2022/02/17 00:27:20;;;;;;;;;;;;;;;9.21;100.00;94435.09;10416240;28;1874;-72
2022/02/17 00:32:24;;;;;;;;;;;;;;;9.38;100.00;94421.09;10413980;28;1841;-71
2022/02/17 00:37:27;;;;;;;;;;;;;;;9.47;100.00;94411.25;10408989;28;1806;-71
2022/02/17 00:42:31;;;;;;;;;;;;;;;9.51;100.00;94411.47;10415714;28;1918;-70
2022/02/17 00:47:34;;;;;;;;;;;;;;;9.60;100.00;94441.03;10415552;28;1782;-71
2022/02/17 00:52:37;;;;;;;;;;;;;;;9.78;100.00;94423.25;10401967;28;1814;-70
2022/02/17 00:57:41;;;;;;;;;;;;;;;9.90;100.00;94440.41;10408317;28;1861;-71
2022/02/17 01:02:45;;;;;;;;;;;;;;;10.07;98.93;94418.31;10418989;22;2269;-69
2022/02/17 01:07:47;;;;;;;;;;;10.90;99.90;;;10.11;98.52;94424.66;10418334;28;1751;-70
2022/02/17 01:12:50;;;;;;;;;;;11.10;99.90;;;10.26;95.80;94367.94;10404395;28;1857;-70
2022/02/17 01:17:53;;;;;;;;;;;11.20;99.90;;;10.26;96.64;94432.41;10412880;28;1849;-69
2022/02/17 01:22:56;;;;;;;;;;;11.30;99.90;;;10.28;95.64;94440.94;10408539;28;1910;-69
2022/02/17 01:27:59;;;;;;;;;;;11.30;99.90;;;10.32;95.73;94451.88;10424110;28;1797;-69
2022/02/17 01:33:03;;;;;;;;;;;11.30;99.90;;;10.27;95.66;94442.03;10412008;28;1735;-69
2022/02/17 01:38:06;;;;;;;;;;;11.30;99.90;;;10.35;93.95;94453.16;10401524;28;1868;-68
2022/02/17 01:43:16;;;;;;;;;;;11.30;99.90;;;10.40;93.20;94459.22;10411366;28;1987;-67
2022/02/17 01:48:18;;;;;;;;;;;11.40;99.90;;;10.38;93.31;94417.66;10408819;28;1821;-69
2022/02/17 01:53:21;;;;;;;;;;;11.40;99.90;;;10.49;91.37;94394.78;10396207;28;2190;-68
2022/02/17 01:58:25;;;;;;;;;;;11.40;99.90;;;10.50;90.69;94374.91;10410822;28;1969;-69
2022/02/17 02:03:28;;;;;;;;;;;11.50;99.90;;;10.53;90.62;94399.25;10417568;28;1960;-69
2022/02/17 02:08:31;;;;;;;;;;;11.50;99.90;;;10.55;89.82;94348.69;10417417;28;1993;-69
2022/02/17 02:13:34;;;;;;;;;;;11.50;99.90;;;10.65;87.94;94385.25;10414383;28;1967;-69
2022/02/17 02:18:37;;;;;;;;;;;11.70;99.90;;;10.73;87.03;94373.75;10417048;28;1976;-69
2022/02/17 02:23:40;;;;;;;;;;;11.70;99.90;;;10.82;85.21;94336.97;10419024;28;2061;-70
2022/02/17 02:28:44;;;;;;;;;;;11.70;99.90;;;10.85;83.10;94332.06;10406364;28;1948;-68
2022/02/17 02:33:52;;;;;;;;;;;11.80;99.90;;;11.00;82.11;94350.47;10376356;28;2048;-68
2022/02/17 02:38:55;;;;;;;;;;;11.90;99.90;;;11.00;80.40;94323.59;10398961;28;2008;-69
2022/02/17 02:43:59;;;;;;;;;;;12.00;99.90;;;11.10;79.39;94331.38;10420851;28;1993;-68
2022/02/17 02:49:02;;;;;;;;;;;12.00;99.90;;;11.18;78.15;94295.63;10423115;28;2015;-68
2022/02/17 02:54:05;;;;;;;;;;;12.20;99.90;;;11.07;79.47;94289.78;10395231;28;1993;-68
2022/02/17 02:59:08;;;;;;;;;;;12.10;99.90;;;11.14;78.11;94288.53;10370056;28;2076;-69
2022/02/17 03:04:11;;;;;;;;;;;12.10;99.90;;;11.18;76.75;94258.00;10371175;28;2229;-69
2022/02/17 03:09:14;;;;;;;;;;;12.10;99.90;;;11.08;77.16;94244.84;10397867;28;2161;-70
2022/02/17 03:14:17;;;;;;;;;;;12.10;99.90;;;11.13;76.46;94250.06;10427373;28;1940;-68
2022/02/17 03:19:20;;;;;;;;;;;12.10;99.90;;;11.08;76.67;94279.81;10415773;28;2273;-69
2022/02/17 03:24:23;;;;;;;;;;;12.10;99.90;;;11.14;75.56;94230.16;10413990;28;1878;-68
2022/02/17 03:29:26;;;;;;;;;;;12.10;99.90;;;11.11;76.58;94287.25;10408248;28;1958;-69
2022/02/17 03:34:29;;;;;;;;;;;12.10;99.90;;;11.15;75.34;94253.25;10413638;28;1987;-69
2022/02/17 03:39:34;;;;;;;;;;;12.10;99.90;;;10.96;76.10;94245.47;10408522;28;1992;-69
2022/02/17 03:44:37;;;;;;;;;;;12.10;99.90;;;10.96;75.36;94233.91;10412437;28;1942;-68
2022/02/17 03:49:39;;;;;;;;;;;12.00;99.90;;;10.88;75.67;94248.09;10421511;28;1938;-68
2022/02/17 03:54:43;;;;;;;;;;;12.00;99.90;;;10.89;75.41;94249.72;10417747;28;1891;-68
2022/02/17 03:59:47;;;;;;;;;;;11.90;99.90;;;10.94;75.07;94236.09;10417570;28;1938;-70
2022/02/17 04:04:50;;;;;;;;;;;11.90;99.90;;;10.75;76.40;94239.88;10396597;28;1954;-69
2022/02/17 04:09:53;;;;;;;;;;;11.90;99.90;;;10.74;76.87;94265.16;10401227;28;1963;-69
2022/02/17 04:14:56;;;;;;;;;;;11.80;99.90;;;10.71;76.29;94259.63;10394250;28;2018;-69
2022/02/17 04:20:00;;;;;;;;;;;11.70;99.90;;;10.71;76.11;94257.72;10393233;28;2025;-70
2022/02/17 04:25:03;;;;;;;;;;;11.70;99.90;;;10.74;76.28;94259.78;10394696;28;1899;-69
2022/02/17 04:30:07;;;;;;;;;;;11.80;99.90;;;10.80;76.16;94265.81;10393573;28;1933;-69
2022/02/17 04:35:10;;;;;;;;;;;11.80;99.90;;;10.86;76.02;94259.19;10390830;28;1972;-69
2022/02/17 04:40:14;;;;;;;;;;;11.90;99.90;;;10.73;76.96;94252.03;10390555;28;1918;-69
2022/02/17 04:45:16;;;;;;;;;;;11.80;99.90;;;10.68;77.70;94252.94;10391219;28;1824;-68
2022/02/17 04:50:20;;;;;;;;;;;11.70;99.90;;;10.63;77.98;94236.19;10392307;28;1852;-69
2022/02/17 04:55:23;;;;;;;;;;;;;;;10.67;77.67;94259.44;10391787;28;2035;-69
2022/02/17 05:00:26;;;;;;;;;;;11.50;99.90;;;10.72;77.49;94288.84;10391720;28;2063;-68
2022/02/17 05:05:29;;;;;;;;;;;11.70;99.90;;;10.72;77.79;94290.75;10413631;28;1820;-69
2022/02/17 05:10:33;;;;;;;;;;;;;;;10.78;78.13;94303.75;10391595;28;1872;-68
2022/02/17 05:15:36;;;;;;;;;;;11.70;99.90;;;10.73;78.46;94311.94;10385568;28;1886;-68
2022/02/17 05:20:40;;;;;;;;;;;11.60;99.90;;;10.68;79.48;94314.75;10396087;28;1973;-69
2022/02/17 05:25:42;;;;;;;;;;;11.70;99.90;;;10.63;80.14;94303.38;10395228;28;1829;-69
2022/02/17 05:30:47;;;;;;;;;;;11.80;99.90;;;10.52;81.10;94297.47;10405297;28;1864;-69
2022/02/17 05:35:52;;;;;;;;;;;;;;;10.56;81.19;94287.69;10399312;28;1826;-69
2022/02/17 05:40:58;;;;;;;;;;;11.50;99.90;;;10.50;81.99;94270.13;10398466;28;1919;-69
2022/02/17 05:46:01;;;;;;;;;;;13.80;99.90;;;10.55;82.25;94288.78;10401560;28;1761;-69
2022/02/17 05:51:11;;;;;;;;;;;11.60;99.90;;;10.48;82.56;94275.78;10399382;28;1808;-69
2022/02/17 05:56:14;;;;;;;;;;;11.50;99.90;;;10.47;82.82;94302.97;10401039;28;1765;-69
2022/02/17 06:01:17;;;;;;;;;;;11.30;99.90;;;10.50;83.40;94291.63;10399013;28;1914;-70
2022/02/17 06:06:19;;;;;;;;;;;11.50;99.90;;;10.54;83.28;94285.31;10404577;28;1951;-69
2022/02/17 06:11:22;;;;;;;;;;;11.50;99.90;;;10.54;83.50;94258.44;10381731;28;2071;-69
2022/02/17 06:16:28;;;;;;;;;;;11.50;99.90;;;10.52;83.70;94306.31;10377824;28;2452;-69
2022/02/17 06:21:30;;;;;;;;;;;11.50;99.90;;;10.56;83.48;94295.75;10384142;28;1979;-69
2022/02/17 06:26:33;;;;;;;;;;;11.50;99.90;;;10.46;83.64;94287.97;10408868;28;1841;-69
2022/02/17 06:31:38;;;;;;;;;;;11.50;99.90;;;10.44;84.22;94292.84;10399041;28;1809;-69
2022/02/17 06:36:44;;;;;;;;;;;11.50;99.90;;;10.34;85.05;94293.91;10394039;28;1950;-68
2022/02/17 06:41:47;;;;;;;;;;;11.40;99.90;;;10.43;84.67;94299.31;10381435;28;2115;-69
2022/02/17 06:46:51;;;;;;;;;;;11.30;99.90;;;10.40;85.27;94265.00;10416514;28;2046;-70
2022/02/17 06:51:53;;;;;;;;;;;11.40;99.90;;;10.45;85.05;94299.81;10391396;28;2000;-68
2022/02/17 06:56:56;;;;;;;;;;;11.40;99.90;;;10.45;84.18;94299.81;10377473;28;2006;-69
2022/02/17 07:01:59;;;;;;;;;;;11.50;99.90;;;10.37;85.18;94308.59;10375178;28;2257;-70
2022/02/17 07:07:02;;;;;;;;;;;11.30;99.90;;;10.52;84.18;94327.03;10392714;28;1813;-69
2022/02/17 07:12:05;;;;;;;;;;;11.50;99.90;;;10.67;82.45;94350.81;10379431;28;1912;-69
2022/02/17 07:17:08;;;;;;;;;;;11.60;99.90;;;10.81;83.22;94350.72;10382197;28;2075;-70
2022/02/17 07:22:11;;;;;;;;;;;11.70;99.90;;;11.05;82.26;94340.38;10396700;28;1906;-70
2022/02/17 07:27:14;;;;;;;;;;;11.90;99.90;;;11.04;82.39;94360.31;10391394;28;1837;-71
2022/02/17 07:32:17;;;;;;;;;;;12.00;99.90;;;11.21;82.83;94370.34;10399605;28;2095;-71
2022/02/17 07:37:20;;;;;;;;;;;12.10;99.90;;;11.34;81.72;94350.59;10390675;28;2031;-68
2022/02/17 07:42:22;;;;;;;;;;;12.30;99.90;;;11.51;80.44;94346.34;10377380;28;2035;-68
2022/02/17 07:47:25;;;;;;;;;;;12.40;99.90;;;11.39;83.55;94360.44;10392614;28;1840;-69
2022/02/17 07:52:28;;;;;;;;;;;12.40;99.90;;;11.28;86.04;94376.06;10391632;28;1919;-67
2022/02/17 07:57:32;;;;;;;;;;;12.30;99.90;;;11.54;81.85;94364.56;10390343;28;1854;-69
2022/02/17 08:02:35;;;;;;;;;;;12.60;99.90;;;11.76;78.42;94326.75;10393098;28;1911;-68
2022/02/17 08:07:38;;;;;;;;;;;12.60;99.90;;;12.05;75.67;94376.53;10391809;28;2103;-68
2022/02/17 08:12:42;;;;;;;;;;;;;;;12.16;74.49;94377.81;10394656;28;1857;-69
2022/02/17 08:17:46;;;;;;;;;;;;;;;12.01;76.22;94407.91;10407591;28;1844;-69
2022/02/17 08:22:49;;;;;;;;;;;;;;;11.60;85.98;94433.28;10419792;28;1891;-69
2022/02/17 08:27:53;;;;;;;;;;;;;;;10.91;96.36;94463.38;10405639;28;1817;-70
2022/02/17 08:32:59;;;;;;;;;;;;;;;10.52;100.00;94461.34;10399319;28;1857;-68
2022/02/17 08:38:02;;;;;;;;;;;;;;;10.18;100.00;94481.44;10408578;28;1850;-70
2022/02/17 08:43:13;;;;;;;;;;;;;;;9.91;100.00;94495.69;10413826;28;1902;-69
2022/02/17 08:48:16;;;;;;;;;;;;;;;9.77;100.00;94507.53;10406671;28;1865;-69
2022/02/17 08:53:21;;;;;;;;;;;;;;;9.63;100.00;94524.44;10402792;28;1889;-70
2022/02/17 08:58:31;;;;;;;;;;;;;;;9.88;100.00;94539.25;10392411;28;1996;-69
2022/02/17 09:03:34;;;;;;;;;;;;;;;10.45;100.00;94525.47;10404148;28;2159;-70
2022/02/17 09:08:38;;;;;;;;;;;;;;;10.68;100.00;94519.00;10435611;28;1992;-70
2022/02/17 09:13:41;;;;;;;;;;;;;;;10.64;100.00;94536.84;10428427;28;1909;-70
2022/02/17 09:18:44;;;;;;;;;;;;;;;10.05;100.00;94570.03;10432549;28;1915;-69
2022/02/17 09:23:52;;;;;;;;;;;;;;;9.58;100.00;94588.13;10426493;28;1973;-72
2022/02/17 09:28:55;;;;;;;;;;;;;;;9.34;100.00;94566.81;10433712;28;1551;-71
2022/02/17 09:34:19;;;;;;;;;;;;;;;9.27;100.00;94559.13;10439406;28;2101;-71
2022/02/17 09:39:25;;;;;;;;;;;;;;;9.30;100.00;94557.78;10428506;28;1835;-71
2022/02/17 09:44:29;;;;;;;;;;;;;;;9.06;100.00;94588.19;10419412;28;1926;-70
2022/02/17 09:49:32;;;;;;;;;;;9.90;99.90;;;9.04;100.00;94582.31;10434807;28;2020;-70
2022/02/17 09:54:35;;;;;;;;;;;;;;;9.04;100.00;94595.72;10432307;28;1897;-71
2022/02/17 09:59:38;;;;;;;;;;;;;;;9.02;100.00;94619.31;10436233;28;1944;-71
2022/02/17 10:04:42;;;;;;;;;;;;;;;9.06;100.00;94615.00;10432070;28;2066;-70
2022/02/17 10:09:46;;;;;;;;;;;;;;;9.03;100.00;94630.84;10443779;28;1742;-71
2022/02/17 10:14:50;;;;;;;;;;;;;;;8.96;100.00;94631.22;10434083;28;1801;-71
2022/02/17 10:19:53;;;;;;;;;;;;;;;8.34;100.00;94641.94;10432405;28;1795;-73
2022/02/17 10:24:57;;;;;;;;;;;;;;;8.27;100.00;94651.38;10437554;28;1975;-71
2022/02/17 10:30:01;;;;;;;;;;;;;;;8.12;100.00;94663.88;10446146;28;1801;-70
2022/02/17 10:35:04;;;;;;;;;;;9.20;99.90;;;8.15;100.00;94661.72;10434933;28;1763;-72
2022/02/17 10:40:08;;;;;;;;;;;;;;;8.32;100.00;94670.06;10418414;28;1838;-71
2022/02/17 10:45:12;;;;;;;;;;;;;;;8.48;100.00;94676.88;10417625;28;1975;-70
2022/02/17 10:50:15;;;;;;;;;;;;;;;8.43;100.00;94702.94;10409832;28;1909;-71
2022/02/17 10:55:20;;;;;;;;;;;;;;;8.38;100.00;94709.13;10419334;28;1815;-71
2022/02/17 11:00:23;;;;;;;;;;;;;;;8.33;100.00;94725.22;10432423;28;1801;-70
2022/02/17 11:05:26;;;;;;;;;;;8.20;99.90;;;8.23;100.00;94710.06;10434932;28;1891;-70
2022/02/17 11:10:29;;;;;;;;;;;8.20;99.90;;;8.26;100.00;94746.19;10416053;28;1876;-70
2022/02/17 11:15:32;;;;;;;;;;;9.00;99.90;;;8.61;100.00;94751.19;10434969;28;1807;-70
2022/02/17 11:20:37;;;;;;;;;;;9.20;99.90;;;8.72;100.00;94769.84;10415930;28;1828;-70
2022/02/17 11:25:40;;;;;;;;;;;9.50;99.90;;;8.62;100.00;94765.38;10413449;28;1975;-71
2022/02/17 11:30:43;;;;;;;;;;;9.50;99.90;;;8.64;100.00;94777.41;10411002;28;2143;-70
2022/02/17 11:35:46;;;;;;;;;;;9.50;99.90;;;8.78;100.00;94771.34;10418571;28;1789;-71
2022/02/17 11:40:49;;;;;;;;;;;10.00;99.90;;;9.28;97.00;94755.69;10421089;28;1908;-69
2022/02/17 11:45:52;;;;;;;;;;;;;;;9.75;88.19;94760.91;10414566;28;1989;-69
2022/02/17 11:50:55;;;;;;;;;;;10.80;99.90;;;10.05;75.94;94753.41;10417774;28;1829;-73
2022/02/17 11:55:58;;;;;;;;;;;10.70;99.90;;;10.13;72.55;94750.06;10413867;28;1852;-70
2022/02/17 12:01:01;;;;;;;;;;;10.90;99.90;;;10.25;72.08;94747.75;10404560;28;1858;-69
2022/02/17 12:06:04;;;;;;;;;;;10.90;99.90;;;10.24;70.02;94762.25;10405765;28;2167;-70
2022/02/17 12:11:07;;;;;;;;;;;11.10;99.90;;;10.27;65.69;94739.38;10413372;28;1889;-68
2022/02/17 12:16:11;;;;;;;;;;;;;;;10.50;67.02;94754.53;10409088;28;1917;-68
2022/02/17 12:21:16;;;;;;;;;;;;;;;10.53;63.85;94731.63;10409706;28;1949;-68
2022/02/17 12:26:39;;;;;;;;;;;;;;;10.64;64.52;94749.16;10405911;28;1985;-69
2022/02/17 12:31:43;;;;;;;;;;;;;;;10.81;62.35;94760.13;10388468;28;1985;-71
2022/02/17 12:36:46;;;;;;;;;;;;;;;10.80;62.54;94768.47;10401617;28;1794;-69
2022/02/17 12:41:50;;;;;;;;;;;;;;;10.86;62.36;94771.84;10406129;28;1910;-70
2022/02/17 12:46:53;;;;;;;;;;;;;;;10.89;62.20;94760.50;10406894;28;1907;-71
2022/02/17 12:51:57;;;;;;;;;;;;;;;11.09;62.70;94762.78;10408532;28;1794;-69
2022/02/17 12:57:00;;;;;;;;;;;;;;;11.23;61.62;94743.91;10399039;28;1943;-72
2022/02/17 13:02:04;;;;;;;;;;;;;;;11.23;60.64;94768.91;10410795;28;1930;-70
2022/02/17 13:07:08;;;;;;;;;;;;;;;11.27;57.68;94734.16;10405952;28;1896;-69
2022/02/17 13:12:12;;;;;;;;;;;;;;;11.35;58.13;94712.69;10405450;28;1952;-69
2022/02/17 13:17:18;;;;;;;;;;;;;;;11.26;55.98;94760.25;10429471;28;2006;-70
2022/02/17 13:22:21;;;;;;;;;;;;;;;11.17;54.53;94762.06;10428046;28;1965;-70
2022/02/17 13:27:24;;;;;;;;;;;;;;;11.05;54.03;94761.78;10431824;28;1873;-70
2022/02/17 13:32:28;;;;;;;;;;;;;;;11.34;53.94;94777.59;10428748;28;1799;-70
2022/02/17 13:37:33;;;;;;;;;;;;;;;11.23;54.46;94782.38;10428378;28;1855;-69
2022/02/17 13:42:37;;;;;;;;;;;;;;;11.43;54.67;94789.22;10431097;28;1913;-69
2022/02/17 13:47:40;;;;;;;;;;;;;;;11.10;55.85;94804.72;10432683;28;1420;-69
2022/02/17 13:52:46;;;;;;;;;;;;;;;11.08;56.05;94788.88;10428157;28;1909;-70
2022/02/17 13:57:52;;;;;;;;;;;;;;;11.22;56.70;94799.63;10434796;28;1797;-69
2022/02/17 14:02:56;;;;;;;;;;;;;;;11.33;55.66;94797.53;10437726;28;1887;-68
2022/02/17 14:07:59;;;;;;;;;;;;;;;11.42;55.22;94802.97;10432995;28;1893;-69
2022/02/17 14:13:05;;;;;;;;;;;;;;;11.05;56.79;94797.53;10433903;28;1867;-69
2022/02/17 14:18:08;;;;;;;;;;;;;;;10.98;57.75;94796.34;10422040;28;1905;-70
2022/02/17 14:23:12;;;;;;;;;;;;;;;11.02;57.28;94805.41;10429263;28;1966;-71
2022/02/17 14:28:15;;;;;;;;;;;;;;;11.10;57.10;94813.56;10426407;28;1821;-69
2022/02/17 14:33:19;;;;;;;;;;;;;;;11.10;57.64;94816.25;10407371;28;2226;-68
2022/02/17 14:38:23;;;;;;;;;;;;;;;11.29;56.56;94818.84;10406641;28;1896;-68
2022/02/17 14:43:34;;;;;;;;;;;;;;;11.17;55.15;94826.63;10408977;28;2010;-71
2022/02/17 14:48:38;;;;;;;;;;;;;;;10.95;56.37;94818.47;10419388;28;1829;-70
2022/02/17 14:53:41;;;;;;;;;;;;;;;10.80;55.63;94822.22;10404075;28;1939;-69
2022/02/17 14:58:45;;;;;;;;;;;;;;;10.97;52.50;94824.34;10406954;28;1837;-69
2022/02/17 15:03:48;;;;;;;;;;;;;;;11.01;51.47;94820.75;10421917;28;1935;-70
2022/02/17 15:08:51;;;;;;;;;;;11.90;99.90;;;11.00;50.68;94837.97;10423719;28;1842;-70
2022/02/17 15:13:54;;;;;;;;;;;11.90;99.90;;;11.05;51.53;94842.44;10401568;28;1889;-68
2022/02/17 15:18:57;;;;;;;;;;;12.10;99.90;;;11.00;51.16;94858.69;10406652;28;1838;-69
2022/02/17 15:23:59;;;;;;;;;;;11.90;99.90;;;10.92;49.98;94819.84;10391357;28;1949;-70
2022/02/17 15:29:02;;;;;;;;;;;11.80;99.90;;;10.81;49.29;94846.16;10398223;28;1872;-68
2022/02/17 15:34:06;;;;;;;;;;;11.70;99.90;;;10.61;49.41;94862.63;10385982;28;1987;-72
2022/02/17 15:39:09;;;;;;;;;;;;;;;10.59;49.33;94872.06;10375218;28;1925;-70
2022/02/17 15:44:14;;;;;;;;;;;11.60;99.90;;;10.50;51.40;94864.69;10387278;28;2001;-69
2022/02/17 15:49:16;;;;;;;;;;;11.40;99.90;;;10.44;50.12;94878.50;10380895;28;1913;-70
2022/02/17 15:54:20;;;;;;;;;;;11.30;99.90;;;10.37;51.03;94883.44;10378276;28;1861;-68
2022/02/17 15:59:23;;;;;;;;;;;11.10;99.90;;;10.43;51.33;94896.53;10381828;28;1909;-69
2022/02/17 16:04:26;;;;;;;;;;;11.90;99.90;;;10.38;52.15;94899.28;10393712;28;2750;-68
2022/02/17 16:09:29;;;;;;;;;;;11.30;99.90;;;10.31;52.97;94906.94;10395580;28;2106;-68
2022/02/17 16:14:33;;;;;;;;;;;11.20;99.90;;;10.32;53.39;94907.72;10395119;28;1877;-70
2022/02/17 16:19:36;;;;;;;;;;;11.20;99.90;;;10.27;55.07;94919.34;10384392;28;2322;-70
2022/02/17 16:24:39;;;;;;;;;;;11.10;99.90;;;10.23;54.83;94923.69;10379427;28;1972;-71
2022/02/17 16:29:42;;;;;;;;;;;11.10;99.90;;;10.08;55.02;94931.94;10370414;28;2080;-72
2022/02/17 16:34:46;;;;;;;;;;;11.10;99.90;;;10.03;54.96;94935.50;10375701;28;1912;-70
2022/02/17 16:39:50;;;;;;;;;;;11.00;99.90;;;9.95;55.17;94953.06;10388611;28;2024;-71
2022/02/17 16:44:53;;;;;;;;;;;11.00;99.90;;;9.87;54.98;94974.38;10392655;28;1942;-70
2022/02/17 16:49:56;;;;;;;;;;;;;;;9.86;55.04;94975.44;10369396;28;2100;-69
2022/02/17 16:55:00;;;;;;;;;;;;;;;9.86;54.68;94983.50;10380200;28;1978;-70
2022/02/17 17:00:07;;;;;;;;;;;;;;;9.90;54.48;95008.69;10387204;28;1979;-70
2022/02/17 17:05:11;;;;;;;;;;;;;;;9.71;54.69;95011.34;10383983;28;1969;-70
2022/02/17 17:10:16;;;;;;;;;;;;;;;9.52;55.14;95026.59;10399661;28;1937;-71
2022/02/17 17:15:20;;;;;;;;;;;;;;;9.33;55.79;95026.50;10387002;28;2211;-70
2022/02/17 17:20:23;;;;;;;;;;;;;;;9.06;56.41;95001.03;10392476;28;2139;-73
2022/02/17 17:25:26;;;;;;;;;;;10.00;99.90;;;9.10;56.13;95052.22;10384887;28;1983;-72
2022/02/17 17:30:29;;;;;;;;;;;10.10;99.90;;;9.10;57.06;95061.06;10389730;28;2006;-71
2022/02/17 17:35:32;;;;;;;;;;;10.10;99.90;;;9.08;57.01;95078.47;10401573;28;2042;-71
2022/02/17 17:40:36;;;;;;;;;;;10.10;99.90;;;8.94;58.04;95094.41;10409848;28;1906;-71
2022/02/17 17:45:40;;;;;;;;;;;10.10;99.90;;;8.96;57.94;95094.13;10390551;28;2008;-71
2022/02/17 17:50:47;;;;;;;;;;;10.00;99.90;;;8.83;58.39;95119.69;10408036;28;1997;-70
2022/02/17 17:55:49;;;;;;;;;;;10.00;99.90;;;8.69;59.49;95134.78;10390984;28;1973;-71
2022/02/17 18:00:54;;;;;;;;;;;9.80;99.90;;;8.68;58.68;95122.47;10413097;28;1974;-72
2022/02/17 18:05:58;;;;;;;;;;;9.80;99.90;;;8.61;58.63;95154.91;10382311;28;2152;-70
2022/02/17 18:11:02;;;;;;;;;;;9.80;99.90;;;8.49;59.00;95186.59;10386786;28;1909;-72
2022/02/17 18:16:05;;;;;;;;;;;9.70;99.90;;;8.59;57.43;95195.38;10376822;28;1980;-71
2022/02/17 18:21:08;;;;;;;;;;;9.70;99.90;;;8.63;56.50;95211.69;10391150;28;2093;-71
2022/02/17 18:26:13;;;;;;;;;;;;;;;8.61;56.11;95200.47;10380592;28;1965;-70
2022/02/17 18:31:16;;;;;;;;;;;;;;;8.68;55.65;95230.44;10397176;28;1955;-70
2022/02/17 18:36:20;;;;;;;;;;;;;;;8.72;54.04;95239.53;10391352;28;1962;-72
2022/02/17 18:41:24;;;;;;;;;;;;;;;8.64;54.83;95245.44;10403122;28;1857;-72
2022/02/17 18:46:27;;;;;;;;;;;;;;;8.62;55.92;95231.53;10410996;28;1916;-70
2022/02/17 18:51:31;;;;;;;;;;;;;;;8.54;56.09;95283.81;10403704;28;2332;-71
2022/02/17 18:56:34;;;;;;;;;;;;;;;8.43;56.86;95316.22;10407946;28;1943;-71
2022/02/17 19:01:38;;;;;;;;;;;;;;;8.35;55.53;95323.75;10410332;28;2010;-72
2022/02/17 19:06:42;;;;;;;;;;;;;;;8.26;55.51;95338.72;10413371;28;1910;-72
2022/02/17 19:11:45;;;;;;;;;;;;;;;8.04;56.67;95355.06;10410042;28;1880;-71
2022/02/17 19:16:49;;;;;;;;;;;;;;;7.96;56.75;95357.47;10416695;28;1508;-72
2022/02/17 19:21:53;;;;;;;;;;;;;;;7.86;57.41;95371.63;10414339;28;1585;-72
2022/02/17 19:26:57;;;;;;;;;;;;;;;7.85;56.84;95397.59;10411808;28;1909;-71
2022/02/17 19:32:00;;;;;;;;;;;;;;;7.76;57.04;95390.34;10418123;28;1807;-70
2022/02/17 19:37:04;;;;;;;;;;;8.80;99.90;;;7.69;56.78;95421.91;10412628;28;1538;-70
2022/02/17 19:42:10;;;;;;;;;;;8.70;99.90;;;7.55;57.54;95413.56;10416972;28;1508;-71
2022/02/17 19:47:35;;;;;;;;;;;8.80;99.90;;;7.48;57.54;95432.53;10420863;28;1977;-71
2022/02/17 19:52:38;;;;;;;;;;;8.60;99.90;;;7.41;58.29;95426.63;10432905;28;1566;-71
2022/02/17 19:57:41;;;;;;;;;;;8.60;99.90;;;7.50;58.01;95437.63;10410306;28;1742;-70
2022/02/17 20:02:45;;;;;;;;;;;8.70;99.90;;;7.57;57.57;95438.19;10418193;28;1777;-71
2022/02/17 20:07:49;;;;;;;;;;;8.60;99.90;;;7.68;57.68;95434.47;10412524;28;1925;-71
2022/02/17 20:12:53;;;;;;;;;;;8.70;99.90;;;7.70;56.34;95444.91;10420278;28;1629;-72
2022/02/17 20:17:56;;;;;;;;;;;8.80;99.90;;;7.77;55.19;95440.13;10421290;28;1693;-72
2022/02/17 20:22:59;;;;;;;;;;;8.90;99.90;;;7.73;54.81;95450.53;10413169;28;1915;-71
2022/02/17 20:28:03;;;;;;;;;;;8.70;99.90;;;7.74;55.60;95441.44;10420115;28;1886;-71
2022/02/17 20:33:06;;;;;;;;;;;8.70;99.90;;;7.74;54.75;95443.31;10404793;28;1657;-72
2022/02/17 20:38:09;;;;;;;;;;;8.70;99.90;;;7.63;55.40;95430.97;10418275;28;1648;-72
2022/02/17 20:43:13;;;;;;;;;;;8.60;99.90;;;7.61;55.13;95433.91;10410538;28;1662;-71
2022/02/17 20:53:38;;;;;;;;;;;8.60;99.90;;;7.55;55.45;95443.00;10409359;28;1503;-71
2022/02/17 20:58:41;;;;;;;;;;;8.50;99.90;;;7.46;56.34;95450.72;10419934;28;1874;-71
2022/02/17 21:03:44;;;;;;;;;;;8.50;99.90;;;7.50;55.57;95454.47;10408867;28;1658;-70
2022/02/17 21:08:47;;;;;;;;;;;8.40;99.90;;;7.39;56.60;95458.19;10432039;28;1887;-71
2022/02/17 21:13:50;;;;;;;;;;;8.40;99.90;;;7.24;56.63;95458.91;10404889;28;1867;-70
2022/02/17 21:18:53;;;;;;;;;;;8.30;99.90;;;7.18;56.55;95467.16;10413216;28;1458;-70
2022/02/17 21:24:00;;;;;;;;;;;8.30;99.90;;;7.11;57.09;95469.25;10408478;28;1910;-72
2022/02/17 21:29:04;;;;;;;;;;;8.20;99.90;;;7.04;57.42;95483.66;10406782;28;1450;-72
2022/02/17 21:34:07;;;;;;;;;;;8.10;99.90;;;6.95;57.66;95482.53;10408049;28;1685;-72
2022/02/17 21:39:10;;;;;;;;;;;8.10;99.90;;;6.97;57.86;95487.63;10402814;28;1692;-71
2022/02/17 21:44:13;;;;;;;;;;;8.00;99.90;;;6.96;57.97;95484.16;10412431;28;1962;-70
2022/02/17 21:49:16;;;;;;;;;;;8.00;99.90;;;6.81;59.06;95491.22;10403870;28;1479;-72
2022/02/17 21:54:19;;;;;;;;;;;7.90;99.90;;;6.82;59.58;95496.34;10395410;28;1889;-70
2022/02/17 21:59:23;;;;;;;;;;;7.90;99.90;;;6.78;59.76;95493.38;10398280;28;1905;-71
2022/02/17 22:04:26;;;;;;;;;;;7.80;99.90;;;6.80;60.22;95508.34;10397984;28;1993;-70
2022/02/17 22:09:29;;;;;;;;;;;7.90;99.90;;;6.69;60.95;95510.94;10404055;28;1972;-70
2022/02/17 22:14:33;;;;;;;;;;;7.80;99.90;;;6.67;61.79;95502.34;10417371;28;1773;-71
2022/02/17 22:19:36;;;;;;;;;;;7.70;99.90;;;6.68;61.05;95513.84;10404122;28;1940;-71
2022/02/17 22:24:39;;;;;;;;;;;7.70;99.90;;;6.69;61.04;95526.97;10402182;28;1914;-69
2022/02/17 22:29:42;;;;;;;;;;;7.70;99.90;;;6.50;61.96;95531.88;10413433;28;1810;-72
2022/02/17 22:34:45;;;;;;;;;;;7.60;99.90;;;6.53;62.40;95521.75;10394974;28;1884;-71
2022/02/17 22:39:48;;;;;;;;;;;7.60;99.90;;;6.61;61.94;95523.94;10415650;28;1870;-70
2022/02/17 22:44:51;;;;;;;;;;;7.60;99.90;;;6.58;62.85;95514.59;10412051;28;1914;-71
2022/02/17 22:49:54;;;;;;;;;;;7.60;99.90;;;6.62;62.81;95520.22;10418313;28;1807;-71
2022/02/17 22:54:57;;;;;;;;;;;7.60;99.90;;;6.60;63.66;95511.66;10416970;28;1947;-71
2022/02/17 23:00:01;;;;;;;;;;;7.60;99.90;;;6.66;63.76;95505.28;10412240;28;1856;-73
2022/02/17 23:05:05;;;;;;;;;;;7.50;99.90;;;6.56;64.09;95483.88;10415801;28;1910;-72
2022/02/17 23:20:50;;;;;;;;;;;7.60;99.90;;;6.50;66.82;95475.81;10412917;28;1745;-71
2022/02/17 23:25:54;;;;;;;;;;;7.60;99.90;;;6.51;67.49;95471.25;10416460;28;1914;-71
2022/02/17 23:30:57;;;;;;;;;;;7.40;99.90;;;6.41;68.54;95473.84;10414235;28;1840;-70
2022/02/17 23:36:02;;;;;;;;;;;7.40;99.90;;;6.38;69.10;95477.84;10410919;28;1861;-70
2022/02/17 23:41:05;;;;;;;;;;;7.40;99.90;;;6.32;69.74;95468.19;10419457;28;1798;-70
2022/02/17 23:46:08;;;;;;;;;;;7.40;99.90;;;6.30;70.83;95469.47;10417211;28;1941;-71
2022/02/17 23:51:11;;;;;;;;;;;7.30;99.90;;;6.24;71.34;95455.31;10410048;28;1868;-71
2022/02/17 23:56:14;;;;;;;;;;;7.50;99.90;;;6.12;72.96;95457.31;10437947;28;1868;-71
